createdAt,value
2022-11-14T00:00:00.230Z,0
2022-11-14T00:05:00.223Z,0
2022-11-14T00:10:00.200Z,0
2022-11-14T00:15:00.196Z,0
2022-11-14T00:20:00.197Z,0
2022-11-14T00:25:00.216Z,0
2022-11-14T00:30:00.197Z,0
2022-11-14T00:35:00.250Z,0
2022-11-14T00:40:00.261Z,0
2022-11-14T00:45:00.279Z,0
2022-11-14T00:50:00.248Z,0
2022-11-14T00:55:00.374Z,0
2022-11-14T01:00:00.261Z,0
2022-11-14T01:05:00.278Z,0
2022-11-14T01:10:00.249Z,0
2022-11-14T01:15:00.264Z,0
2022-11-14T01:20:00.200Z,0
2022-11-14T01:25:00.193Z,0
2022-11-14T01:30:00.226Z,0
2022-11-14T01:35:00.208Z,0
2022-11-14T01:40:00.202Z,0
2022-11-14T01:45:00.195Z,0
2022-11-14T01:50:00.228Z,0
2022-11-14T01:55:00.192Z,0
2022-11-14T02:00:00.210Z,0
2022-11-14T02:05:00.199Z,0
2022-11-14T02:10:00.193Z,0
2022-11-14T02:15:00.199Z,0
2022-11-14T02:20:04.837Z,0
2022-11-14T02:25:00.202Z,0
2022-11-14T02:30:00.203Z,0
2022-11-14T02:35:00.205Z,0
2022-11-14T02:40:00.193Z,0
2022-11-14T02:45:00.219Z,0
2022-11-14T02:50:00.188Z,0
2022-11-14T02:55:00.199Z,0
2022-11-14T03:00:00.197Z,0
2022-11-14T03:05:00.181Z,0
2022-11-14T03:10:00.196Z,0
2022-11-14T03:15:00.200Z,0
2022-11-14T03:20:00.224Z,0
2022-11-14T03:25:00.196Z,0
2022-11-14T03:30:00.191Z,0
2022-11-14T03:35:00.184Z,0
2022-11-14T03:40:00.219Z,0
2022-11-14T03:45:00.179Z,0
2022-11-14T03:50:00.203Z,0
2022-11-14T03:55:00.188Z,0
2022-11-14T04:00:00.354Z,0
2022-11-14T04:05:00.294Z,0
2022-11-14T04:10:00.344Z,0
2022-11-14T04:15:00.342Z,0
2022-11-14T04:20:00.298Z,0
2022-11-14T04:25:00.282Z,0
2022-11-14T04:30:00.315Z,0
2022-11-14T04:35:00.282Z,0
2022-11-14T04:40:00.309Z,0
2022-11-14T04:45:00.436Z,0
2022-11-14T04:50:00.285Z,0
2022-11-14T04:55:00.280Z,0
2022-11-14T05:00:00.354Z,0
2022-11-14T05:05:00.268Z,0
2022-11-14T05:10:00.226Z,0
2022-11-14T05:15:00.257Z,0
2022-11-14T05:20:00.222Z,0
2022-11-14T05:25:00.233Z,0
2022-11-14T05:30:00.249Z,0
2022-11-14T05:35:00.241Z,0
2022-11-14T05:40:00.239Z,0
2022-11-14T05:45:00.267Z,0
2022-11-14T05:50:00.236Z,0
2022-11-14T05:55:00.218Z,0
2022-11-14T06:00:00.392Z,0
2022-11-14T06:05:00.227Z,0
2022-11-14T06:10:00.276Z,0
2022-11-14T06:15:00.223Z,0
2022-11-14T06:20:00.214Z,0
2022-11-14T06:25:00.201Z,7
2022-11-14T06:30:00.250Z,14
2022-11-14T06:35:00.271Z,28
2022-11-14T06:40:00.236Z,49
2022-11-14T06:45:00.240Z,82
2022-11-14T06:50:00.265Z,136
2022-11-14T06:55:00.201Z,135
2022-11-14T07:00:00.242Z,222
2022-11-14T07:05:00.286Z,310
2022-11-14T07:10:00.272Z,432
2022-11-14T07:15:00.249Z,569
2022-11-14T07:20:00.225Z,722
2022-11-14T07:25:00.210Z,916
2022-11-14T07:30:00.273Z,1032
2022-11-14T07:35:02.314Z,1304
2022-11-14T07:40:00.250Z,1468
2022-11-14T07:45:00.296Z,1650
2022-11-14T07:50:00.215Z,1855
2022-11-14T07:55:00.255Z,2163
2022-11-14T08:00:00.266Z,2347
2022-11-14T08:05:00.208Z,2650
2022-11-14T08:10:00.217Z,3357
2022-11-14T08:15:00.197Z,3357
2022-11-14T08:20:00.221Z,3783
2022-11-14T08:25:00.208Z,4288
2022-11-14T08:30:00.229Z,4819
2022-11-14T08:35:00.219Z,5433
2022-11-14T08:40:00.222Z,5433
2022-11-14T08:45:00.238Z,5433
2022-11-14T08:50:00.254Z,5412
2022-11-14T08:55:00.238Z,5412
2022-11-14T09:00:00.259Z,6111
2022-11-14T09:05:00.388Z,6111
2022-11-14T09:10:00.221Z,6111
2022-11-14T09:15:00.213Z,6869
2022-11-14T09:20:00.254Z,6869
2022-11-14T09:25:00.207Z,6869
2022-11-14T09:30:00.248Z,6869
2022-11-14T09:35:00.218Z,6869
2022-11-14T09:40:00.209Z,7720
2022-11-14T09:45:00.451Z,7821
2022-11-14T09:50:00.499Z,40860
2022-11-14T09:55:00.435Z,53015
2022-11-14T10:00:00.259Z,53015
2022-11-14T10:05:00.239Z,53015
2022-11-14T10:10:00.319Z,59621
2022-11-14T10:15:00.235Z,59621
2022-11-14T10:20:00.216Z,59621
2022-11-14T10:25:00.205Z,59621
2022-11-14T10:30:00.263Z,59621
2022-11-14T10:35:00.214Z,59621
2022-11-14T10:40:00.212Z,65187
2022-11-14T10:45:00.199Z,67050
2022-11-14T10:50:00.220Z,67050
2022-11-14T10:55:00.325Z,67050
2022-11-14T11:00:00.235Z,67050
2022-11-14T11:05:00.278Z,67050
2022-11-14T11:10:00.211Z,67050
2022-11-14T11:15:00.208Z,67050
2022-11-14T11:20:03.863Z,67050
2022-11-14T11:25:00.209Z,67050
2022-11-14T11:30:00.224Z,67050
2022-11-14T11:35:00.227Z,71745
2022-11-14T11:40:00.213Z,71745
2022-11-14T11:45:00.231Z,71745
2022-11-14T11:50:00.226Z,71745
2022-11-14T11:55:00.311Z,66665
2022-11-14T12:00:00.258Z,66665
2022-11-14T12:05:00.242Z,49865
2022-11-14T12:10:10.882Z,41295
2022-11-14T12:15:00.283Z,38503
2022-11-14T12:20:00.248Z,54463
2022-11-14T12:25:00.236Z,38072
2022-11-14T12:30:00.298Z,16873
2022-11-14T12:35:00.305Z,7649
2022-11-14T12:40:00.236Z,6019
2022-11-14T12:45:00.203Z,3252
2022-11-14T12:50:00.220Z,2563
2022-11-14T12:55:00.279Z,4483
2022-11-14T13:00:00.247Z,4496
2022-11-14T13:05:00.229Z,4431
2022-11-14T13:10:00.275Z,3939
2022-11-14T13:15:00.218Z,4494
2022-11-14T13:20:00.209Z,3870
2022-11-14T13:25:00.209Z,3421
2022-11-14T13:30:00.357Z,2042
2022-11-14T13:35:00.213Z,1798
2022-11-14T13:40:00.308Z,1792
2022-11-14T13:45:00.257Z,1404
2022-11-14T13:50:00.230Z,984
2022-11-14T13:55:00.246Z,869
2022-11-14T14:00:00.267Z,773
2022-11-14T14:05:00.239Z,773
2022-11-14T14:10:00.207Z,773
2022-11-14T14:15:00.235Z,776
2022-11-14T14:20:00.253Z,851
2022-11-14T14:25:00.199Z,689
2022-11-14T14:30:00.253Z,543
2022-11-14T14:35:00.213Z,389
2022-11-14T14:40:00.215Z,330
2022-11-14T14:45:00.201Z,279
2022-11-14T14:50:00.200Z,237
2022-11-14T14:55:00.220Z,237
2022-11-14T15:00:00.383Z,237
2022-11-14T15:05:00.229Z,200
2022-11-14T15:10:00.224Z,170
2022-11-14T15:15:00.236Z,200
2022-11-14T15:20:00.216Z,200
2022-11-14T15:25:00.425Z,144
2022-11-14T15:30:00.241Z,122
2022-11-14T15:35:00.227Z,87
2022-11-14T15:40:00.268Z,62
2022-11-14T15:45:00.209Z,38
2022-11-14T15:50:00.225Z,31
2022-11-14T15:55:00.305Z,24
2022-11-14T16:00:00.479Z,17
2022-11-14T16:05:00.214Z,10
2022-11-14T16:10:00.233Z,7
2022-11-14T16:15:00.296Z,7
2022-11-14T16:20:00.256Z,7
2022-11-14T16:25:00.219Z,3
2022-11-14T16:30:00.244Z,3
2022-11-14T16:35:00.235Z,3
2022-11-14T16:40:00.350Z,3
2022-11-14T16:45:00.300Z,3
2022-11-14T16:50:00.311Z,3
2022-11-14T16:55:00.236Z,3
2022-11-14T17:00:00.274Z,3
2022-11-14T17:05:00.245Z,0
2022-11-14T17:10:00.320Z,0
2022-11-14T17:15:00.362Z,0
2022-11-14T17:20:00.262Z,0
2022-11-14T17:25:00.345Z,0
2022-11-14T17:30:00.360Z,0
2022-11-14T17:35:00.286Z,0
2022-11-14T17:40:00.199Z,0
2022-11-14T17:45:00.301Z,0
2022-11-14T17:50:00.234Z,0
2022-11-14T17:55:00.242Z,0
2022-11-14T18:00:00.265Z,0
2022-11-14T18:05:00.257Z,0
2022-11-14T18:10:00.293Z,0
2022-11-14T18:15:00.204Z,0
2022-11-14T18:20:00.224Z,0
2022-11-14T18:25:04.807Z,0
2022-11-14T18:30:08.332Z,0
2022-11-14T18:35:00.224Z,0
2022-11-14T18:40:00.300Z,0
2022-11-14T18:45:00.272Z,0
2022-11-14T18:50:00.399Z,0
2022-11-14T18:55:00.325Z,0
2022-11-14T19:00:00.265Z,0
2022-11-14T19:05:00.266Z,0
2022-11-14T19:10:00.274Z,0
2022-11-14T19:15:00.248Z,0
2022-11-14T19:20:00.326Z,0
2022-11-14T19:25:00.215Z,0
2022-11-14T19:30:00.315Z,0
2022-11-14T19:35:00.265Z,0
2022-11-14T19:40:00.330Z,0
2022-11-14T19:45:00.268Z,0
2022-11-14T19:50:00.222Z,0
2022-11-14T19:55:00.274Z,0
2022-11-14T20:00:00.314Z,0
2022-11-14T20:05:00.282Z,0
2022-11-14T20:10:00.260Z,0
2022-11-14T20:15:00.247Z,0
2022-11-14T20:20:00.236Z,0
2022-11-14T20:25:00.270Z,0
2022-11-14T20:30:00.269Z,0
2022-11-14T20:35:00.229Z,0
2022-11-14T20:40:00.337Z,0
2022-11-14T20:45:00.209Z,0
2022-11-14T20:50:00.210Z,0
2022-11-14T20:55:00.260Z,0
2022-11-14T21:00:00.334Z,0
2022-11-14T21:05:00.209Z,0
2022-11-14T21:10:00.223Z,0
2022-11-14T21:15:00.251Z,0
2022-11-14T21:20:00.239Z,0
2022-11-14T21:25:00.225Z,0
2022-11-14T21:30:00.234Z,0
2022-11-14T21:35:00.212Z,0
2022-11-14T21:40:00.235Z,0
2022-11-14T21:45:00.220Z,0
2022-11-14T21:50:01.486Z,0
2022-11-14T21:55:00.264Z,0
2022-11-14T22:00:00.232Z,0
2022-11-14T22:05:00.257Z,0
2022-11-14T22:10:00.250Z,0
2022-11-14T22:15:00.213Z,0
2022-11-14T22:20:00.231Z,0
2022-11-14T22:25:00.322Z,0
2022-11-14T22:30:00.352Z,0
2022-11-14T22:35:00.235Z,0
2022-11-14T22:40:00.213Z,0
2022-11-14T22:45:00.236Z,0
2022-11-14T22:50:00.210Z,0
2022-11-14T22:55:00.302Z,0
2022-11-14T23:00:00.303Z,0
2022-11-14T23:05:00.248Z,0
2022-11-14T23:10:00.246Z,0
2022-11-14T23:15:00.248Z,0
2022-11-14T23:20:00.227Z,0
2022-11-14T23:25:00.230Z,0
2022-11-14T23:30:00.256Z,0
2022-11-14T23:35:00.237Z,0
2022-11-14T23:40:00.235Z,0
2022-11-14T23:45:00.262Z,0
2022-11-14T23:50:00.197Z,0
2022-11-14T23:55:00.224Z,0
